sensor_id;sensor_type;location;lat;lon;timestamp;P1;durP1;ratioP1;P2;durP2;ratioP2
43560;SDS011;32305;46.410;17.394;2022-08-05T00:01:22;2.20;;;1.50;;
43560;SDS011;32305;46.410;17.394;2022-08-05T00:03:54;2.10;;;1.90;;
43560;SDS011;32305;46.410;17.394;2022-08-05T00:06:22;2.00;;;1.83;;
43560;SDS011;32305;46.410;17.394;2022-08-05T00:08:57;1.98;;;1.88;;
43560;SDS011;32305;46.410;17.394;2022-08-05T00:11:26;2.15;;;1.95;;
43560;SDS011;32305;46.410;17.394;2022-08-05T00:14:00;2.08;;;1.88;;
43560;SDS011;32305;46.410;17.394;2022-08-05T00:16:42;1.73;;;1.63;;
43560;SDS011;32305;46.410;17.394;2022-08-05T00:19:19;1.92;;;1.83;;
43560;SDS011;32305;46.410;17.394;2022-08-05T00:21:48;1.40;;;1.40;;
43560;SDS011;32305;46.410;17.394;2022-08-05T00:24:15;2.03;;;1.90;;
43560;SDS011;32305;46.410;17.394;2022-08-05T00:26:50;3.00;;;1.77;;
43560;SDS011;32305;46.410;17.394;2022-08-05T00:29:19;1.80;;;1.70;;
43560;SDS011;32305;46.410;17.394;2022-08-05T00:31:48;1.70;;;1.60;;
43560;SDS011;32305;46.410;17.394;2022-08-05T00:34:35;1.95;;;1.85;;
43560;SDS011;32305;46.410;17.394;2022-08-05T00:37:22;1.60;;;1.60;;
43560;SDS011;32305;46.410;17.394;2022-08-05T00:39:50;1.42;;;1.40;;
43560;SDS011;32305;46.410;17.394;2022-08-05T00:42:32;1.65;;;1.60;;
43560;SDS011;32305;46.410;17.394;2022-08-05T00:45:04;1.77;;;1.67;;
43560;SDS011;32305;46.410;17.394;2022-08-05T00:47:37;1.73;;;1.63;;
43560;SDS011;32305;46.410;17.394;2022-08-05T00:50:23;2.20;;;2.10;;
43560;SDS011;32305;46.410;17.394;2022-08-05T00:52:51;2.00;;;1.90;;
43560;SDS011;32305;46.410;17.394;2022-08-05T00:55:20;2.22;;;2.13;;
43560;SDS011;32305;46.410;17.394;2022-08-05T00:57:59;2.00;;;1.90;;
43560;SDS011;32305;46.410;17.394;2022-08-05T01:00:30;1.60;;;1.52;;
43560;SDS011;32305;46.410;17.394;2022-08-05T01:02:58;1.90;;;1.80;;
43560;SDS011;32305;46.410;17.394;2022-08-05T01:05:26;1.50;;;1.50;;
43560;SDS011;32305;46.410;17.394;2022-08-05T01:07:53;1.80;;;1.70;;
43560;SDS011;32305;46.410;17.394;2022-08-05T01:10:54;1.85;;;1.75;;
43560;SDS011;32305;46.410;17.394;2022-08-05T01:16:37;1.58;;;1.58;;
43560;SDS011;32305;46.410;17.394;2022-08-05T01:19:30;1.80;;;1.70;;
43560;SDS011;32305;46.410;17.394;2022-08-05T01:22:41;1.85;;;1.75;;
43560;SDS011;32305;46.410;17.394;2022-08-05T01:25:36;2.10;;;2.00;;
43560;SDS011;32305;46.410;17.394;2022-08-05T01:28:23;2.40;;;2.20;;
43560;SDS011;32305;46.410;17.394;2022-08-05T01:31:08;1.85;;;1.75;;
43560;SDS011;32305;46.410;17.394;2022-08-05T01:34:03;1.90;;;1.80;;
43560;SDS011;32305;46.410;17.394;2022-08-05T01:36:37;1.98;;;1.88;;
43560;SDS011;32305;46.410;17.394;2022-08-05T01:39:12;1.92;;;1.83;;
43560;SDS011;32305;46.410;17.394;2022-08-05T01:42:01;1.73;;;1.63;;
43560;SDS011;32305;46.410;17.394;2022-08-05T01:44:30;1.83;;;1.73;;
43560;SDS011;32305;46.410;17.394;2022-08-05T01:47:00;2.20;;;1.90;;
43560;SDS011;32305;46.410;17.394;2022-08-05T01:49:30;2.00;;;1.90;;
43560;SDS011;32305;46.410;17.394;2022-08-05T01:52:20;1.98;;;1.88;;
43560;SDS011;32305;46.410;17.394;2022-08-05T01:54:50;1.73;;;1.63;;
43560;SDS011;32305;46.410;17.394;2022-08-05T01:57:28;2.15;;;2.05;;
43560;SDS011;32305;46.410;17.394;2022-08-05T02:00:17;1.65;;;1.60;;
43560;SDS011;32305;46.410;17.394;2022-08-05T02:02:56;2.10;;;1.92;;
43560;SDS011;32305;46.410;17.394;2022-08-05T02:05:30;1.85;;;1.75;;
43560;SDS011;32305;46.410;17.394;2022-08-05T02:08:01;1.95;;;1.85;;
43560;SDS011;32305;46.410;17.394;2022-08-05T02:10:31;1.90;;;1.80;;
43560;SDS011;32305;46.410;17.394;2022-08-05T02:13:11;1.77;;;1.67;;
43560;SDS011;32305;46.410;17.394;2022-08-05T02:15:43;1.90;;;1.80;;
43560;SDS011;32305;46.410;17.394;2022-08-05T02:18:23;1.90;;;1.80;;
43560;SDS011;32305;46.410;17.394;2022-08-05T02:21:02;1.77;;;1.67;;
43560;SDS011;32305;46.410;17.394;2022-08-05T02:23:52;2.15;;;2.00;;
43560;SDS011;32305;46.410;17.394;2022-08-05T02:26:31;2.03;;;1.92;;
43560;SDS011;32305;46.410;17.394;2022-08-05T02:29:20;1.90;;;1.80;;
43560;SDS011;32305;46.410;17.394;2022-08-05T02:32:09;1.98;;;1.88;;
43560;SDS011;32305;46.410;17.394;2022-08-05T02:34:49;1.90;;;1.80;;
43560;SDS011;32305;46.410;17.394;2022-08-05T02:37:20;2.03;;;1.92;;
43560;SDS011;32305;46.410;17.394;2022-08-05T02:39:50;2.33;;;2.13;;
43560;SDS011;32305;46.410;17.394;2022-08-05T02:42:18;2.20;;;2.10;;
43560;SDS011;32305;46.410;17.394;2022-08-05T02:44:56;1.95;;;1.85;;
43560;SDS011;32305;46.410;17.394;2022-08-05T02:47:26;1.88;;;1.77;;
43560;SDS011;32305;46.410;17.394;2022-08-05T02:50:16;2.45;;;2.28;;
43560;SDS011;32305;46.410;17.394;2022-08-05T02:52:44;1.90;;;1.80;;
43560;SDS011;32305;46.410;17.394;2022-08-05T02:55:12;1.50;;;1.50;;
43560;SDS011;32305;46.410;17.394;2022-08-05T02:57:42;2.47;;;2.25;;
43560;SDS011;32305;46.410;17.394;2022-08-05T03:00:30;2.13;;;2.03;;
43560;SDS011;32305;46.410;17.394;2022-08-05T03:03:01;2.03;;;1.92;;
43560;SDS011;32305;46.410;17.394;2022-08-05T03:05:36;1.95;;;1.85;;
43560;SDS011;32305;46.410;17.394;2022-08-05T03:08:24;2.00;;;1.90;;
43560;SDS011;32305;46.410;17.394;2022-08-05T03:10:55;1.90;;;1.80;;
43560;SDS011;32305;46.410;17.394;2022-08-05T03:13:42;2.17;;;2.08;;
43560;SDS011;32305;46.410;17.394;2022-08-05T03:16:28;1.88;;;1.77;;
43560;SDS011;32305;46.410;17.394;2022-08-05T03:18:56;2.35;;;2.15;;
43560;SDS011;32305;46.410;17.394;2022-08-05T03:21:25;2.13;;;2.03;;
43560;SDS011;32305;46.410;17.394;2022-08-05T03:23:58;2.30;;;2.10;;
43560;SDS011;32305;46.410;17.394;2022-08-05T03:26:27;1.83;;;1.73;;
43560;SDS011;32305;46.410;17.394;2022-08-05T03:31:25;2.22;;;2.13;;
43560;SDS011;32305;46.410;17.394;2022-08-05T03:34:12;1.70;;;1.60;;
43560;SDS011;32305;46.410;17.394;2022-08-05T03:36:40;2.30;;;2.20;;
43560;SDS011;32305;46.410;17.394;2022-08-05T03:39:07;2.40;;;1.77;;
43560;SDS011;32305;46.410;17.394;2022-08-05T03:41:52;2.08;;;1.92;;
43560;SDS011;32305;46.410;17.394;2022-08-05T03:44:21;2.22;;;2.10;;
43560;SDS011;32305;46.410;17.394;2022-08-05T03:46:49;1.77;;;1.67;;
43560;SDS011;32305;46.410;17.394;2022-08-05T03:49:17;2.00;;;1.90;;
43560;SDS011;32305;46.410;17.394;2022-08-05T03:51:51;2.05;;;1.95;;
43560;SDS011;32305;46.410;17.394;2022-08-05T03:54:51;1.95;;;1.85;;
43560;SDS011;32305;46.410;17.394;2022-08-05T03:57:42;2.20;;;2.10;;
43560;SDS011;32305;46.410;17.394;2022-08-05T04:00:12;2.22;;;2.03;;
43560;SDS011;32305;46.410;17.394;2022-08-05T04:02:45;2.00;;;1.90;;
43560;SDS011;32305;46.410;17.394;2022-08-05T04:05:24;2.28;;;2.10;;
43560;SDS011;32305;46.410;17.394;2022-08-05T04:08:03;2.08;;;1.98;;
43560;SDS011;32305;46.410;17.394;2022-08-05T04:10:40;2.28;;;2.08;;
43560;SDS011;32305;46.410;17.394;2022-08-05T04:13:10;1.80;;;1.70;;
43560;SDS011;32305;46.410;17.394;2022-08-05T04:15:38;2.47;;;2.28;;
43560;SDS011;32305;46.410;17.394;2022-08-05T04:18:26;2.00;;;1.90;;
43560;SDS011;32305;46.410;17.394;2022-08-05T04:20:55;2.53;;;1.95;;
43560;SDS011;32305;46.410;17.394;2022-08-05T04:23:24;4.65;;;2.00;;
43560;SDS011;32305;46.410;17.394;2022-08-05T04:26:13;2.47;;;2.28;;
43560;SDS011;32305;46.410;17.394;2022-08-05T04:28:42;2.85;;;2.50;;
43560;SDS011;32305;46.410;17.394;2022-08-05T04:31:17;2.60;;;1.92;;
43560;SDS011;32305;46.410;17.394;2022-08-05T04:33:44;1.95;;;1.80;;
43560;SDS011;32305;46.410;17.394;2022-08-05T04:36:32;2.38;;;2.28;;
43560;SDS011;32305;46.410;17.394;2022-08-05T04:39:15;2.20;;;2.10;;
43560;SDS011;32305;46.410;17.394;2022-08-05T04:41:46;2.10;;;2.00;;
43560;SDS011;32305;46.410;17.394;2022-08-05T04:44:16;2.40;;;2.20;;
43560;SDS011;32305;46.410;17.394;2022-08-05T04:46:56;2.42;;;2.28;;
43560;SDS011;32305;46.410;17.394;2022-08-05T04:49:24;2.30;;;2.17;;
43560;SDS011;32305;46.410;17.394;2022-08-05T04:52:13;2.30;;;2.15;;
43560;SDS011;32305;46.410;17.394;2022-08-05T04:54:40;2.72;;;2.53;;
43560;SDS011;32305;46.410;17.394;2022-08-05T04:57:07;2.30;;;2.10;;
43560;SDS011;32305;46.410;17.394;2022-08-05T04:59:34;2.20;;;2.08;;
43560;SDS011;32305;46.410;17.394;2022-08-05T05:02:04;3.03;;;2.17;;
43560;SDS011;32305;46.410;17.394;2022-08-05T05:04:52;2.70;;;1.85;;
43560;SDS011;32305;46.410;17.394;2022-08-05T05:07:28;2.70;;;2.50;;
43560;SDS011;32305;46.410;17.394;2022-08-05T05:12:28;3.55;;;2.20;;
43560;SDS011;32305;46.410;17.394;2022-08-05T05:14:55;2.83;;;2.63;;
43560;SDS011;32305;46.410;17.394;2022-08-05T05:17:22;2.80;;;2.47;;
43560;SDS011;32305;46.410;17.394;2022-08-05T05:20:10;3.58;;;2.20;;
43560;SDS011;32305;46.410;17.394;2022-08-05T05:22:39;3.10;;;2.80;;
43560;SDS011;32305;46.410;17.394;2022-08-05T05:25:09;2.75;;;2.55;;
43560;SDS011;32305;46.410;17.394;2022-08-05T05:27:42;2.72;;;2.53;;
43560;SDS011;32305;46.410;17.394;2022-08-05T05:30:14;2.78;;;2.58;;
43560;SDS011;32305;46.410;17.394;2022-08-05T05:32:57;2.90;;;2.70;;
43560;SDS011;32305;46.410;17.394;2022-08-05T05:35:41;3.03;;;2.83;;
43560;SDS011;32305;46.410;17.394;2022-08-05T05:38:08;3.38;;;3.08;;
43560;SDS011;32305;46.410;17.394;2022-08-05T05:43:14;4.13;;;3.10;;
43560;SDS011;32305;46.410;17.394;2022-08-05T05:45:53;4.18;;;3.75;;
43560;SDS011;32305;46.410;17.394;2022-08-05T05:48:22;4.05;;;3.60;;
43560;SDS011;32305;46.410;17.394;2022-08-05T05:50:53;3.65;;;3.35;;
43560;SDS011;32305;46.410;17.394;2022-08-05T05:53:20;3.75;;;3.33;;
43560;SDS011;32305;46.410;17.394;2022-08-05T05:55:48;4.20;;;3.30;;
43560;SDS011;32305;46.410;17.394;2022-08-05T05:58:26;8.43;;;3.78;;
43560;SDS011;32305;46.410;17.394;2022-08-05T06:00:59;4.05;;;3.40;;
43560;SDS011;32305;46.410;17.394;2022-08-05T06:03:38;6.93;;;4.18;;
43560;SDS011;32305;46.410;17.394;2022-08-05T06:06:26;4.32;;;3.92;;
43560;SDS011;32305;46.410;17.394;2022-08-05T06:08:56;4.55;;;4.07;;
43560;SDS011;32305;46.410;17.394;2022-08-05T06:11:25;7.55;;;4.10;;
43560;SDS011;32305;46.410;17.394;2022-08-05T06:13:54;6.85;;;4.53;;
43560;SDS011;32305;46.410;17.394;2022-08-05T06:16:22;5.07;;;4.22;;
43560;SDS011;32305;46.410;17.394;2022-08-05T06:18:57;7.35;;;4.13;;
43560;SDS011;32305;46.410;17.394;2022-08-05T06:21:27;7.15;;;4.13;;
43560;SDS011;32305;46.410;17.394;2022-08-05T06:24:04;5.80;;;3.90;;
43560;SDS011;32305;46.410;17.394;2022-08-05T06:26:37;4.60;;;4.10;;
43560;SDS011;32305;46.410;17.394;2022-08-05T06:29:21;4.78;;;4.28;;
43560;SDS011;32305;46.410;17.394;2022-08-05T06:32:09;4.15;;;3.75;;
43560;SDS011;32305;46.410;17.394;2022-08-05T06:34:54;5.82;;;4.38;;
43560;SDS011;32305;46.410;17.394;2022-08-05T06:37:26;6.13;;;4.43;;
43560;SDS011;32305;46.410;17.394;2022-08-05T06:40:14;6.18;;;4.68;;
43560;SDS011;32305;46.410;17.394;2022-08-05T06:42:46;6.43;;;4.80;;
43560;SDS011;32305;46.410;17.394;2022-08-05T06:45:17;4.85;;;4.00;;
43560;SDS011;32305;46.410;17.394;2022-08-05T06:48:05;4.25;;;3.95;;
43560;SDS011;32305;46.410;17.394;2022-08-05T06:50:53;5.32;;;4.53;;
43560;SDS011;32305;46.410;17.394;2022-08-05T06:53:20;4.60;;;4.20;;
43560;SDS011;32305;46.410;17.394;2022-08-05T06:55:54;5.28;;;4.32;;
43560;SDS011;32305;46.410;17.394;2022-08-05T06:58:23;5.82;;;4.53;;
43560;SDS011;32305;46.410;17.394;2022-08-05T07:01:02;4.80;;;4.22;;
43560;SDS011;32305;46.410;17.394;2022-08-05T07:03:31;4.97;;;4.20;;
43560;SDS011;32305;46.410;17.394;2022-08-05T07:06:00;4.97;;;4.10;;
43560;SDS011;32305;46.410;17.394;2022-08-05T07:08:41;6.32;;;4.43;;
43560;SDS011;32305;46.410;17.394;2022-08-05T07:11:16;5.03;;;4.53;;
43560;SDS011;32305;46.410;17.394;2022-08-05T07:13:50;5.85;;;4.70;;
43560;SDS011;32305;46.410;17.394;2022-08-05T07:16:46;7.97;;;4.30;;
43560;SDS011;32305;46.410;17.394;2022-08-05T07:19:37;6.13;;;4.63;;
43560;SDS011;32305;46.410;17.394;2022-08-05T07:22:26;4.72;;;4.22;;
43560;SDS011;32305;46.410;17.394;2022-08-05T07:24:57;7.82;;;4.40;;
43560;SDS011;32305;46.410;17.394;2022-08-05T07:27:46;5.40;;;4.40;;
43560;SDS011;32305;46.410;17.394;2022-08-05T07:30:26;5.03;;;4.53;;
43560;SDS011;32305;46.410;17.394;2022-08-05T07:32:58;4.30;;;3.90;;
43560;SDS011;32305;46.410;17.394;2022-08-05T07:35:26;5.85;;;4.63;;
43560;SDS011;32305;46.410;17.394;2022-08-05T07:38:15;5.22;;;4.30;;
43560;SDS011;32305;46.410;17.394;2022-08-05T07:41:05;4.47;;;4.07;;
43560;SDS011;32305;46.410;17.394;2022-08-05T07:43:54;5.53;;;4.47;;
43560;SDS011;32305;46.410;17.394;2022-08-05T07:46:24;4.20;;;3.80;;
43560;SDS011;32305;46.410;17.394;2022-08-05T07:48:54;5.88;;;3.85;;
43560;SDS011;32305;46.410;17.394;2022-08-05T07:51:31;4.50;;;4.10;;
43560;SDS011;32305;46.410;17.394;2022-08-05T07:54:06;6.00;;;3.70;;
43560;SDS011;32305;46.410;17.394;2022-08-05T07:56:35;6.85;;;4.82;;
43560;SDS011;32305;46.410;17.394;2022-08-05T07:59:23;5.50;;;4.40;;
43560;SDS011;32305;46.410;17.394;2022-08-05T08:02:06;7.68;;;4.28;;
43560;SDS011;32305;46.410;17.394;2022-08-05T08:04:42;5.38;;;4.13;;
43560;SDS011;32305;46.410;17.394;2022-08-05T08:07:12;6.72;;;4.90;;
43560;SDS011;32305;46.410;17.394;2022-08-05T08:09:40;8.07;;;4.68;;
43560;SDS011;32305;46.410;17.394;2022-08-05T08:12:09;5.60;;;3.95;;
43560;SDS011;32305;46.410;17.394;2022-08-05T08:14:59;6.90;;;3.50;;
43560;SDS011;32305;46.410;17.394;2022-08-05T08:17:30;4.85;;;3.78;;
43560;SDS011;32305;46.410;17.394;2022-08-05T08:20:00;5.13;;;3.67;;
43560;SDS011;32305;46.410;17.394;2022-08-05T08:22:51;3.90;;;3.60;;
43560;SDS011;32305;46.410;17.394;2022-08-05T08:25:21;5.43;;;3.88;;
43560;SDS011;32305;46.410;17.394;2022-08-05T08:27:53;4.18;;;3.83;;
43560;SDS011;32305;46.410;17.394;2022-08-05T08:30:21;5.32;;;3.55;;
43560;SDS011;32305;46.410;17.394;2022-08-05T08:33:09;5.40;;;3.22;;
43560;SDS011;32305;46.410;17.394;2022-08-05T08:35:39;4.50;;;3.80;;
43560;SDS011;32305;46.410;17.394;2022-08-05T08:38:27;4.30;;;3.35;;
43560;SDS011;32305;46.410;17.394;2022-08-05T08:41:04;4.25;;;3.30;;
43560;SDS011;32305;46.410;17.394;2022-08-05T08:43:35;7.43;;;3.88;;
43560;SDS011;32305;46.410;17.394;2022-08-05T08:46:23;4.90;;;3.92;;
43560;SDS011;32305;46.410;17.394;2022-08-05T08:48:54;6.32;;;3.58;;
43560;SDS011;32305;46.410;17.394;2022-08-05T08:51:45;5.28;;;3.30;;
43560;SDS011;32305;46.410;17.394;2022-08-05T08:54:31;3.03;;;2.80;;
43560;SDS011;32305;46.410;17.394;2022-08-05T08:59:37;5.20;;;3.45;;
43560;SDS011;32305;46.410;17.394;2022-08-05T09:02:12;6.65;;;3.10;;
43560;SDS011;32305;46.410;17.394;2022-08-05T09:04:41;3.58;;;3.08;;
43560;SDS011;32305;46.410;17.394;2022-08-05T09:07:27;7.20;;;2.80;;
43560;SDS011;32305;46.410;17.394;2022-08-05T09:10:05;3.88;;;3.15;;
43560;SDS011;32305;46.410;17.394;2022-08-05T09:12:33;3.05;;;2.75;;
43560;SDS011;32305;46.410;17.394;2022-08-05T09:15:04;3.28;;;2.97;;
43560;SDS011;32305;46.410;17.394;2022-08-05T09:17:32;3.10;;;2.90;;
43560;SDS011;32305;46.410;17.394;2022-08-05T09:20:09;3.03;;;2.75;;
43560;SDS011;32305;46.410;17.394;2022-08-05T09:23:03;3.00;;;2.80;;
43560;SDS011;32305;46.410;17.394;2022-08-05T09:25:49;4.35;;;2.85;;
43560;SDS011;32305;46.410;17.394;2022-08-05T09:28:29;4.40;;;3.10;;
43560;SDS011;32305;46.410;17.394;2022-08-05T09:33:52;3.33;;;3.03;;
43560;SDS011;32305;46.410;17.394;2022-08-05T09:36:21;3.25;;;2.63;;
43560;SDS011;32305;46.410;17.394;2022-08-05T09:38:59;2.80;;;2.40;;
43560;SDS011;32305;46.410;17.394;2022-08-05T09:41:55;5.25;;;2.58;;
43560;SDS011;32305;46.410;17.394;2022-08-05T09:44:32;3.30;;;2.97;;
43560;SDS011;32305;46.410;17.394;2022-08-05T09:47:08;2.70;;;2.50;;
43560;SDS011;32305;46.410;17.394;2022-08-05T09:49:48;5.15;;;2.80;;
43560;SDS011;32305;46.410;17.394;2022-08-05T09:52:29;2.80;;;2.60;;
43560;SDS011;32305;46.410;17.394;2022-08-05T09:55:00;2.88;;;2.58;;
43560;SDS011;32305;46.410;17.394;2022-08-05T09:57:48;3.80;;;2.70;;
43560;SDS011;32305;46.410;17.394;2022-08-05T10:00:24;7.32;;;2.92;;
43560;SDS011;32305;46.410;17.394;2022-08-05T10:02:52;2.80;;;2.60;;
43560;SDS011;32305;46.410;17.394;2022-08-05T10:05:25;3.28;;;2.97;;
43560;SDS011;32305;46.410;17.394;2022-08-05T10:07:57;3.15;;;2.88;;
43560;SDS011;32305;46.410;17.394;2022-08-05T10:10:46;4.85;;;2.33;;
43560;SDS011;32305;46.410;17.394;2022-08-05T10:13:32;4.60;;;2.28;;
43560;SDS011;32305;46.410;17.394;2022-08-05T10:19:18;4.15;;;2.70;;
43560;SDS011;32305;46.410;17.394;2022-08-05T10:22:09;3.00;;;2.80;;
43560;SDS011;32305;46.410;17.394;2022-08-05T10:24:56;2.97;;;2.70;;
43560;SDS011;32305;46.410;17.394;2022-08-05T10:27:24;2.72;;;2.53;;
43560;SDS011;32305;46.410;17.394;2022-08-05T10:30:12;7.03;;;2.67;;
43560;SDS011;32305;46.410;17.394;2022-08-05T10:32:59;2.70;;;2.50;;
43560;SDS011;32305;46.410;17.394;2022-08-05T10:35:29;2.75;;;2.55;;
43560;SDS011;32305;46.410;17.394;2022-08-05T10:37:59;2.65;;;2.45;;
43560;SDS011;32305;46.410;17.394;2022-08-05T10:40:35;2.80;;;2.45;;
43560;SDS011;32305;46.410;17.394;2022-08-05T10:43:23;3.25;;;2.50;;
43560;SDS011;32305;46.410;17.394;2022-08-05T10:46:17;3.15;;;2.95;;
43560;SDS011;32305;46.410;17.394;2022-08-05T10:48:54;2.47;;;2.28;;
43560;SDS011;32305;46.410;17.394;2022-08-05T10:51:40;2.97;;;2.63;;
43560;SDS011;32305;46.410;17.394;2022-08-05T10:54:44;4.38;;;3.05;;
43560;SDS011;32305;46.410;17.394;2022-08-05T10:57:26;3.80;;;3.17;;
43560;SDS011;32305;46.410;17.394;2022-08-05T11:00:16;2.42;;;2.17;;
43560;SDS011;32305;46.410;17.394;2022-08-05T11:06:05;2.92;;;2.65;;
43560;SDS011;32305;46.410;17.394;2022-08-05T11:12:05;4.10;;;2.85;;
43560;SDS011;32305;46.410;17.394;2022-08-05T11:15:21;4.95;;;2.22;;
43560;SDS011;32305;46.410;17.394;2022-08-05T11:18:28;2.20;;;2.08;;
43560;SDS011;32305;46.410;17.394;2022-08-05T11:21:00;2.75;;;2.45;;
43560;SDS011;32305;46.410;17.394;2022-08-05T11:23:41;3.45;;;2.40;;
43560;SDS011;32305;46.410;17.394;2022-08-05T11:26:38;2.60;;;2.40;;
43560;SDS011;32305;46.410;17.394;2022-08-05T11:32:17;2.78;;;2.40;;
43560;SDS011;32305;46.410;17.394;2022-08-05T11:34:51;2.60;;;2.40;;
43560;SDS011;32305;46.410;17.394;2022-08-05T11:43:58;2.50;;;2.30;;
43560;SDS011;32305;46.410;17.394;2022-08-05T11:46:37;3.13;;;2.20;;
43560;SDS011;32305;46.410;17.394;2022-08-05T11:51:59;2.05;;;1.80;;
43560;SDS011;32305;46.410;17.394;2022-08-05T11:54:37;2.38;;;2.17;;
43560;SDS011;32305;46.410;17.394;2022-08-05T11:57:06;5.28;;;2.38;;
43560;SDS011;32305;46.410;17.394;2022-08-05T11:59:51;2.58;;;2.30;;
43560;SDS011;32305;46.410;17.394;2022-08-05T12:02:23;3.92;;;2.35;;
43560;SDS011;32305;46.410;17.394;2022-08-05T12:05:01;2.25;;;2.15;;
43560;SDS011;32305;46.410;17.394;2022-08-05T12:07:44;3.40;;;2.70;;
43560;SDS011;32305;46.410;17.394;2022-08-05T12:10:33;3.42;;;2.00;;
43560;SDS011;32305;46.410;17.394;2022-08-05T12:13:11;3.10;;;2.55;;
43560;SDS011;32305;46.410;17.394;2022-08-05T12:16:06;2.65;;;2.45;;
43560;SDS011;32305;46.410;17.394;2022-08-05T12:18:41;2.42;;;2.22;;
43560;SDS011;32305;46.410;17.394;2022-08-05T12:21:21;2.17;;;2.00;;
43560;SDS011;32305;46.410;17.394;2022-08-05T12:24:06;2.20;;;2.00;;
43560;SDS011;32305;46.410;17.394;2022-08-05T12:26:37;2.58;;;2.38;;
43560;SDS011;32305;46.410;17.394;2022-08-05T12:29:14;4.13;;;2.40;;
43560;SDS011;32305;46.410;17.394;2022-08-05T12:31:55;2.42;;;2.22;;
43560;SDS011;32305;46.410;17.394;2022-08-05T12:34:29;2.42;;;2.33;;
43560;SDS011;32305;46.410;17.394;2022-08-05T12:36:59;3.22;;;2.72;;
43560;SDS011;32305;46.410;17.394;2022-08-05T12:39:36;3.20;;;2.75;;
43560;SDS011;32305;46.410;17.394;2022-08-05T12:42:12;2.72;;;2.30;;
43560;SDS011;32305;46.410;17.394;2022-08-05T12:44:42;2.58;;;2.38;;
43560;SDS011;32305;46.410;17.394;2022-08-05T12:47:11;3.78;;;2.25;;
43560;SDS011;32305;46.410;17.394;2022-08-05T12:49:44;3.17;;;2.40;;
43560;SDS011;32305;46.410;17.394;2022-08-05T12:52:31;2.10;;;2.00;;
43560;SDS011;32305;46.410;17.394;2022-08-05T12:55:23;2.50;;;2.30;;
43560;SDS011;32305;46.410;17.394;2022-08-05T12:57:54;2.13;;;2.03;;
43560;SDS011;32305;46.410;17.394;2022-08-05T13:00:43;3.38;;;2.28;;
43560;SDS011;32305;46.410;17.394;2022-08-05T13:03:35;2.80;;;2.60;;
43560;SDS011;32305;46.410;17.394;2022-08-05T13:06:15;3.33;;;2.42;;
43560;SDS011;32305;46.410;17.394;2022-08-05T13:08:45;2.97;;;2.67;;
43560;SDS011;32305;46.410;17.394;2022-08-05T13:11:18;3.58;;;2.00;;
43560;SDS011;32305;46.410;17.394;2022-08-05T13:14:20;2.70;;;2.45;;
43560;SDS011;32305;46.410;17.394;2022-08-05T13:16:51;3.60;;;2.33;;
43560;SDS011;32305;46.410;17.394;2022-08-05T13:19:26;3.97;;;2.53;;
43560;SDS011;32305;46.410;17.394;2022-08-05T13:22:14;3.78;;;2.58;;
43560;SDS011;32305;46.410;17.394;2022-08-05T13:24:55;4.32;;;2.47;;
43560;SDS011;32305;46.410;17.394;2022-08-05T13:27:32;1.95;;;1.85;;
43560;SDS011;32305;46.410;17.394;2022-08-05T13:30:05;4.07;;;2.60;;
43560;SDS011;32305;46.410;17.394;2022-08-05T13:35:21;4.03;;;2.58;;
43560;SDS011;32305;46.410;17.394;2022-08-05T13:38:08;2.85;;;2.53;;
43560;SDS011;32305;46.410;17.394;2022-08-05T13:40:55;2.47;;;2.10;;
43560;SDS011;32305;46.410;17.394;2022-08-05T13:43:22;2.70;;;2.50;;
43560;SDS011;32305;46.410;17.394;2022-08-05T13:46:10;4.82;;;2.90;;
43560;SDS011;32305;46.410;17.394;2022-08-05T13:48:37;3.85;;;2.42;;
43560;SDS011;32305;46.410;17.394;2022-08-05T13:51:25;2.58;;;2.38;;
43560;SDS011;32305;46.410;17.394;2022-08-05T13:54:07;2.55;;;2.35;;
43560;SDS011;32305;46.410;17.394;2022-08-05T13:56:38;3.78;;;2.65;;
43560;SDS011;32305;46.410;17.394;2022-08-05T13:59:17;3.92;;;2.72;;
43560;SDS011;32305;46.410;17.394;2022-08-05T14:01:51;3.00;;;2.75;;
43560;SDS011;32305;46.410;17.394;2022-08-05T14:04:28;2.80;;;2.60;;
43560;SDS011;32305;46.410;17.394;2022-08-05T14:07:21;1.98;;;1.85;;
43560;SDS011;32305;46.410;17.394;2022-08-05T14:10:18;2.47;;;2.25;;
43560;SDS011;32305;46.410;17.394;2022-08-05T14:12:55;2.78;;;2.58;;
43560;SDS011;32305;46.410;17.394;2022-08-05T14:15:23;2.20;;;2.10;;
43560;SDS011;32305;46.410;17.394;2022-08-05T14:18:11;2.60;;;2.40;;
43560;SDS011;32305;46.410;17.394;2022-08-05T14:20:47;2.30;;;2.10;;
43560;SDS011;32305;46.410;17.394;2022-08-05T14:23:20;2.20;;;2.05;;
43560;SDS011;32305;46.410;17.394;2022-08-05T14:25:52;2.33;;;2.22;;
43560;SDS011;32305;46.410;17.394;2022-08-05T14:28:24;3.60;;;2.45;;
43560;SDS011;32305;46.410;17.394;2022-08-05T14:30:54;2.13;;;2.03;;
43560;SDS011;32305;46.410;17.394;2022-08-05T14:33:22;2.40;;;2.20;;
43560;SDS011;32305;46.410;17.394;2022-08-05T14:35:49;2.40;;;2.20;;
43560;SDS011;32305;46.410;17.394;2022-08-05T14:38:20;4.35;;;2.20;;
43560;SDS011;32305;46.410;17.394;2022-08-05T14:40:58;3.58;;;2.50;;
43560;SDS011;32305;46.410;17.394;2022-08-05T14:43:31;2.67;;;2.47;;
43560;SDS011;32305;46.410;17.394;2022-08-05T14:46:19;1.98;;;1.88;;
43560;SDS011;32305;46.410;17.394;2022-08-05T14:48:53;2.25;;;2.15;;
43560;SDS011;32305;46.410;17.394;2022-08-05T14:51:22;2.30;;;2.10;;
43560;SDS011;32305;46.410;17.394;2022-08-05T14:53:55;1.92;;;1.83;;
43560;SDS011;32305;46.410;17.394;2022-08-05T14:56:43;2.00;;;1.90;;
43560;SDS011;32305;46.410;17.394;2022-08-05T14:59:12;2.15;;;2.05;;
43560;SDS011;32305;46.410;17.394;2022-08-05T15:01:40;2.08;;;1.98;;
43560;SDS011;32305;46.410;17.394;2022-08-05T15:04:13;1.90;;;1.80;;
43560;SDS011;32305;46.410;17.394;2022-08-05T15:06:41;2.15;;;2.05;;
43560;SDS011;32305;46.410;17.394;2022-08-05T15:09:15;2.30;;;2.20;;
43560;SDS011;32305;46.410;17.394;2022-08-05T15:12:04;2.40;;;2.30;;
43560;SDS011;32305;46.410;17.394;2022-08-05T15:20:02;2.13;;;2.03;;
43560;SDS011;32305;46.410;17.394;2022-08-05T15:22:31;2.22;;;2.13;;
43560;SDS011;32305;46.410;17.394;2022-08-05T15:24:58;2.20;;;2.10;;
43560;SDS011;32305;46.410;17.394;2022-08-05T15:27:39;2.05;;;1.95;;
43560;SDS011;32305;46.410;17.394;2022-08-05T15:30:16;2.25;;;2.15;;
43560;SDS011;32305;46.410;17.394;2022-08-05T15:32:44;2.28;;;2.17;;
43560;SDS011;32305;46.410;17.394;2022-08-05T15:35:12;2.15;;;2.05;;
43560;SDS011;32305;46.410;17.394;2022-08-05T15:37:40;1.83;;;1.73;;
43560;SDS011;32305;46.410;17.394;2022-08-05T15:40:27;2.13;;;1.90;;
43560;SDS011;32305;46.410;17.394;2022-08-05T15:43:14;2.50;;;2.30;;
43560;SDS011;32305;46.410;17.394;2022-08-05T15:45:46;2.25;;;2.15;;
43560;SDS011;32305;46.410;17.394;2022-08-05T15:48:26;2.40;;;2.20;;
43560;SDS011;32305;46.410;17.394;2022-08-05T15:50:53;2.20;;;2.10;;
43560;SDS011;32305;46.410;17.394;2022-08-05T15:53:21;1.92;;;1.65;;
43560;SDS011;32305;46.410;17.394;2022-08-05T15:55:55;3.30;;;2.05;;
43560;SDS011;32305;46.410;17.394;2022-08-05T15:58:30;2.47;;;1.73;;
43560;SDS011;32305;46.410;17.394;2022-08-05T16:01:03;1.88;;;1.77;;
43560;SDS011;32305;46.410;17.394;2022-08-05T16:03:43;1.85;;;1.75;;
43560;SDS011;32305;46.410;17.394;2022-08-05T16:06:15;1.90;;;1.80;;
43560;SDS011;32305;46.410;17.394;2022-08-05T16:08:46;1.63;;;1.52;;
43560;SDS011;32305;46.410;17.394;2022-08-05T16:11:18;1.77;;;1.67;;
43560;SDS011;32305;46.410;17.394;2022-08-05T16:14:05;1.70;;;1.60;;
43560;SDS011;32305;46.410;17.394;2022-08-05T16:16:34;1.77;;;1.67;;
43560;SDS011;32305;46.410;17.394;2022-08-05T16:19:02;1.92;;;1.83;;